createdAt,value
2017-08-16T00:00:48.667Z,99.90
2017-08-16T00:03:16.223Z,99.90
2017-08-16T00:05:43.754Z,99.90
2017-08-16T00:08:11.299Z,99.90
2017-08-16T00:10:38.851Z,99.90
2017-08-16T00:13:06.370Z,99.90
2017-08-16T00:15:33.920Z,99.90
2017-08-16T00:18:02.224Z,99.90
2017-08-16T00:20:29.779Z,99.90
2017-08-16T00:22:57.315Z,99.90
2017-08-16T00:25:24.873Z,99.90
2017-08-16T00:27:52.423Z,99.90
2017-08-16T00:30:19.966Z,99.90
2017-08-16T00:32:47.500Z,99.90
2017-08-16T00:35:15.043Z,99.90
2017-08-16T00:37:42.583Z,99.90
2017-08-16T00:40:10.123Z,99.90
2017-08-16T00:42:37.638Z,99.90
2017-08-16T00:45:05.194Z,99.90
2017-08-16T00:47:32.728Z,99.90
2017-08-16T00:50:00.280Z,99.90
2017-08-16T00:52:27.813Z,99.90
2017-08-16T00:54:55.379Z,99.90
2017-08-16T00:57:22.905Z,99.90
2017-08-16T00:59:50.444Z,99.90
2017-08-16T01:02:17.988Z,99.90
2017-08-16T01:04:45.538Z,99.90
2017-08-16T01:07:13.098Z,99.90
2017-08-16T01:09:40.678Z,99.90
2017-08-16T01:12:08.228Z,99.90
2017-08-16T01:14:35.768Z,99.90
2017-08-16T01:17:03.306Z,99.90
2017-08-16T01:19:30.838Z,99.90
2017-08-16T01:21:58.403Z,99.90
2017-08-16T01:24:25.945Z,99.90
2017-08-16T01:26:53.504Z,99.90
2017-08-16T01:29:21.045Z,99.90
2017-08-16T01:31:48.587Z,99.90
2017-08-16T01:34:16.127Z,99.90
2017-08-16T01:36:43.670Z,99.90
2017-08-16T01:39:11.202Z,99.90
2017-08-16T01:41:38.778Z,99.90
2017-08-16T01:44:06.312Z,99.90
2017-08-16T01:46:33.876Z,99.90
2017-08-16T01:49:01.445Z,99.90
2017-08-16T01:51:28.995Z,99.90
2017-08-16T01:53:56.550Z,99.90
2017-08-16T01:56:24.066Z,99.90
2017-08-16T01:58:51.610Z,99.90
2017-08-16T02:01:19.155Z,99.90
2017-08-16T02:03:46.713Z,99.90
2017-08-16T02:06:14.238Z,99.90
2017-08-16T02:08:42.541Z,99.90
2017-08-16T02:11:10.062Z,99.90
2017-08-16T02:13:37.627Z,99.90
2017-08-16T02:16:05.152Z,99.90
2017-08-16T02:18:32.704Z,99.90
2017-08-16T02:21:00.226Z,99.90
2017-08-16T02:23:28.549Z,99.90
2017-08-16T02:25:56.070Z,99.90
2017-08-16T02:28:23.651Z,99.90
2017-08-16T02:30:51.229Z,99.90
2017-08-16T02:33:18.869Z,99.90
2017-08-16T02:35:46.421Z,99.90
2017-08-16T02:38:14.308Z,99.90
2017-08-16T02:40:41.848Z,99.90
2017-08-16T02:43:09.404Z,99.90
2017-08-16T02:45:36.930Z,99.90
2017-08-16T02:48:04.492Z,99.90
2017-08-16T02:50:32.024Z,99.90
2017-08-16T02:52:59.608Z,99.90
2017-08-16T02:55:27.161Z,99.90
2017-08-16T02:57:54.677Z,99.90
2017-08-16T03:00:22.256Z,99.90
2017-08-16T03:02:49.798Z,99.90
2017-08-16T03:05:17.351Z,99.90
2017-08-16T03:07:44.874Z,99.90
2017-08-16T03:10:12.561Z,99.90
2017-08-16T03:12:40.096Z,99.90
2017-08-16T03:15:07.643Z,99.90
2017-08-16T03:17:35.182Z,99.90
2017-08-16T03:20:02.732Z,99.90
2017-08-16T03:22:30.258Z,99.90
2017-08-16T03:24:58.583Z,99.90
2017-08-16T03:27:26.120Z,99.90
2017-08-16T03:29:53.666Z,99.90
2017-08-16T03:32:21.200Z,99.90
2017-08-16T03:34:49.556Z,99.90
2017-08-16T03:37:17.107Z,99.90
2017-08-16T03:39:44.673Z,99.90
2017-08-16T03:42:12.220Z,99.90
2017-08-16T03:44:39.776Z,99.90
2017-08-16T03:47:07.342Z,99.90
2017-08-16T03:49:34.886Z,99.90
2017-08-16T03:52:02.435Z,99.90
2017-08-16T03:54:29.982Z,99.90
2017-08-16T03:56:57.540Z,99.90
2017-08-16T03:59:25.075Z,99.90
2017-08-16T04:01:52.642Z,99.90
2017-08-16T04:04:20.180Z,99.90
2017-08-16T04:06:47.739Z,99.90
2017-08-16T04:09:15.276Z,99.90
2017-08-16T04:11:42.835Z,99.90
2017-08-16T04:14:10.372Z,99.90
2017-08-16T04:16:37.937Z,99.90
2017-08-16T04:19:05.472Z,99.90
2017-08-16T04:21:33.796Z,99.90
2017-08-16T04:24:01.331Z,99.90
2017-08-16T04:26:28.888Z,99.90
2017-08-16T04:28:56.420Z,99.90
2017-08-16T04:31:23.975Z,99.90
2017-08-16T04:33:51.504Z,99.90
2017-08-16T04:36:19.046Z,99.90
2017-08-16T04:38:46.592Z,99.90
2017-08-16T04:41:14.123Z,99.90
2017-08-16T04:43:41.677Z,99.90
2017-08-16T04:46:09.221Z,99.90
2017-08-16T04:48:36.794Z,99.90
2017-08-16T04:51:04.328Z,99.90
2017-08-16T04:53:31.870Z,99.90
2017-08-16T04:55:59.405Z,99.90
2017-08-16T04:58:26.971Z,99.90
2017-08-16T05:00:54.520Z,99.90
2017-08-16T05:03:22.076Z,99.90
2017-08-16T05:05:49.606Z,99.90
2017-08-16T05:08:17.150Z,99.90
2017-08-16T05:10:44.680Z,99.90
2017-08-16T05:13:12.236Z,99.90
2017-08-16T05:15:39.763Z,99.90
2017-08-16T05:18:07.315Z,99.90
2017-08-16T05:20:34.852Z,99.90
2017-08-16T05:23:02.407Z,99.90
2017-08-16T05:25:30.004Z,99.90
2017-08-16T05:27:57.563Z,99.90
2017-08-16T05:30:25.116Z,99.90
2017-08-16T05:32:52.650Z,99.90
2017-08-16T05:35:20.211Z,99.90
2017-08-16T05:37:47.739Z,99.90
2017-08-16T05:40:15.303Z,99.90
2017-08-16T05:42:42.838Z,99.90
2017-08-16T05:45:10.379Z,99.90
2017-08-16T05:47:37.935Z,99.90
2017-08-16T05:50:05.478Z,99.90
2017-08-16T05:52:33.028Z,99.90
2017-08-16T05:55:00.612Z,99.90
2017-08-16T05:57:28.139Z,99.90
2017-08-16T05:59:55.699Z,99.90
2017-08-16T06:02:23.273Z,99.90
2017-08-16T06:04:50.853Z,99.90
2017-08-16T06:07:18.412Z,99.90
2017-08-16T06:09:45.951Z,99.90
2017-08-16T06:12:13.523Z,99.90
2017-08-16T06:14:41.062Z,99.90
2017-08-16T06:17:08.616Z,99.90
2017-08-16T06:19:36.162Z,99.90
2017-08-16T06:22:03.725Z,99.90
2017-08-16T06:24:31.266Z,99.90
2017-08-16T06:26:58.828Z,99.90
2017-08-16T06:29:26.369Z,99.90
2017-08-16T06:31:53.921Z,99.90
2017-08-16T06:34:21.447Z,99.90
2017-08-16T06:36:48.994Z,99.90
2017-08-16T06:39:16.544Z,99.90
2017-08-16T06:41:44.085Z,99.90
2017-08-16T06:44:11.610Z,99.90
2017-08-16T06:46:39.141Z,99.90
2017-08-16T06:49:06.702Z,99.90
2017-08-16T06:51:34.260Z,99.90
2017-08-16T06:54:01.824Z,99.90
2017-08-16T06:56:29.357Z,99.90
2017-08-16T06:58:56.930Z,99.90
2017-08-16T07:01:24.479Z,99.90
2017-08-16T07:03:52.027Z,99.90
2017-08-16T07:06:19.558Z,99.90
2017-08-16T07:08:47.139Z,99.90
2017-08-16T07:11:14.710Z,99.90
2017-08-16T07:13:42.259Z,99.90
2017-08-16T07:16:09.782Z,99.90
2017-08-16T07:18:37.341Z,99.90
2017-08-16T07:21:04.888Z,99.90
2017-08-16T07:23:32.457Z,99.90
2017-08-16T07:26:00.022Z,99.90
2017-08-16T07:28:27.596Z,99.90
2017-08-16T07:30:55.959Z,99.90
2017-08-16T07:33:23.521Z,99.90
2017-08-16T07:35:51.072Z,99.90
2017-08-16T07:38:18.650Z,99.90
2017-08-16T07:40:46.199Z,99.90
2017-08-16T07:43:13.773Z,99.90
2017-08-16T07:45:41.338Z,99.90
2017-08-16T07:48:08.886Z,99.90
2017-08-16T07:50:36.478Z,99.90
2017-08-16T07:53:04.017Z,99.90
2017-08-16T07:55:31.605Z,99.90
2017-08-16T07:57:59.146Z,99.90
2017-08-16T08:00:26.704Z,99.90
2017-08-16T08:02:54.244Z,99.90
2017-08-16T08:05:21.813Z,99.90
2017-08-16T08:07:49.344Z,99.90
2017-08-16T08:10:16.905Z,99.90
2017-08-16T08:12:44.447Z,99.90
2017-08-16T08:15:12.003Z,99.90
2017-08-16T08:17:39.541Z,99.90
2017-08-16T08:20:07.100Z,99.90
2017-08-16T08:22:34.632Z,99.90
2017-08-16T08:25:02.296Z,99.90
2017-08-16T08:27:29.837Z,99.90
2017-08-16T08:29:57.404Z,99.90
2017-08-16T08:32:24.944Z,99.90
2017-08-16T08:34:52.503Z,99.90
2017-08-16T08:37:20.055Z,99.90
2017-08-16T08:39:47.590Z,99.90
2017-08-16T08:42:15.148Z,99.90
2017-08-16T08:44:42.677Z,99.90
2017-08-16T08:47:10.232Z,99.90
2017-08-16T08:49:37.757Z,99.90
2017-08-16T08:52:05.316Z,99.90
2017-08-16T08:54:32.852Z,99.90
2017-08-16T08:57:00.403Z,99.90
2017-08-16T08:59:27.933Z,99.90
2017-08-16T09:01:55.505Z,99.90
2017-08-16T09:04:23.044Z,99.90
2017-08-16T09:06:50.596Z,99.90
2017-08-16T09:09:18.139Z,99.90
2017-08-16T09:11:45.682Z,99.90
2017-08-16T09:14:13.980Z,99.90
2017-08-16T09:16:41.530Z,99.90
2017-08-16T09:19:09.837Z,99.90
2017-08-16T09:21:37.362Z,99.90
2017-08-16T09:24:05.673Z,99.90
2017-08-16T09:26:33.216Z,99.90
2017-08-16T09:29:00.774Z,99.90
2017-08-16T09:31:28.312Z,99.90
2017-08-16T09:33:55.872Z,99.90
2017-08-16T09:36:23.405Z,99.90
2017-08-16T09:38:50.950Z,99.90
2017-08-16T09:41:18.490Z,99.90
2017-08-16T09:43:46.037Z,99.90
2017-08-16T09:46:13.570Z,99.90
2017-08-16T09:48:41.119Z,99.90
2017-08-16T09:51:08.665Z,99.90
2017-08-16T09:53:36.210Z,99.90
2017-08-16T09:56:03.745Z,99.90
2017-08-16T09:58:31.286Z,99.90
2017-08-16T10:00:58.809Z,99.90
2017-08-16T10:03:26.349Z,99.90
2017-08-16T10:05:53.867Z,99.90
2017-08-16T10:08:24.289Z,99.90
2017-08-16T10:10:51.818Z,99.90
2017-08-16T10:13:19.371Z,99.90
2017-08-16T10:15:46.902Z,99.90
2017-08-16T10:18:14.430Z,99.90
2017-08-16T10:20:42.738Z,99.90
2017-08-16T10:23:10.273Z,99.90
2017-08-16T10:25:37.831Z,99.90
2017-08-16T10:28:06.131Z,99.90
2017-08-16T10:30:33.684Z,99.90
2017-08-16T10:33:01.970Z,99.90
2017-08-16T10:35:29.522Z,99.90
2017-08-16T10:37:57.069Z,99.90
2017-08-16T10:40:24.631Z,99.90
2017-08-16T10:42:52.174Z,99.90
2017-08-16T10:45:19.726Z,99.90
2017-08-16T10:47:47.276Z,99.90
2017-08-16T10:50:14.836Z,99.90
2017-08-16T10:52:42.375Z,99.90
2017-08-16T10:55:09.924Z,99.90
2017-08-16T10:57:37.468Z,99.90
2017-08-16T11:00:05.032Z,99.90
2017-08-16T11:02:32.570Z,99.90
2017-08-16T11:05:00.897Z,99.90
2017-08-16T11:07:28.440Z,99.90
2017-08-16T11:09:55.993Z,99.90
2017-08-16T11:12:23.534Z,99.90
2017-08-16T11:14:51.090Z,99.90
2017-08-16T11:17:18.614Z,99.90
2017-08-16T11:19:47.297Z,99.90
2017-08-16T11:22:14.841Z,99.90
2017-08-16T11:24:42.400Z,99.90
2017-08-16T11:27:09.931Z,95.10
2017-08-16T11:29:37.479Z,95.30
2017-08-16T11:32:05.793Z,99.90
2017-08-16T11:34:33.350Z,99.90
2017-08-16T11:37:00.896Z,99.90
2017-08-16T11:39:28.451Z,99.90
2017-08-16T11:41:56.002Z,99.90
2017-08-16T11:44:23.553Z,99.90
2017-08-16T11:46:51.115Z,99.90
2017-08-16T11:49:18.665Z,99.90
2017-08-16T11:51:46.224Z,99.90
2017-08-16T11:54:13.783Z,99.90
2017-08-16T11:56:42.106Z,99.90
2017-08-16T11:59:09.653Z,99.90
2017-08-16T12:01:37.203Z,99.90
2017-08-16T12:04:04.731Z,99.90
2017-08-16T12:06:32.279Z,99.90
2017-08-16T12:08:59.816Z,99.90
2017-08-16T12:11:27.367Z,99.90
2017-08-16T12:13:54.956Z,99.90
2017-08-16T12:16:22.511Z,99.90
2017-08-16T12:18:50.042Z,99.90
2017-08-16T12:21:17.591Z,99.90
2017-08-16T12:23:45.127Z,99.90
2017-08-16T12:26:13.456Z,99.90
2017-08-16T12:28:40.996Z,99.90
2017-08-16T12:31:08.542Z,99.90
2017-08-16T12:33:36.083Z,99.90
2017-08-16T12:36:04.437Z,99.90
2017-08-16T12:38:31.986Z,99.90
2017-08-16T12:40:59.516Z,99.90
2017-08-16T12:43:27.070Z,99.90
2017-08-16T12:45:54.613Z,99.90
2017-08-16T12:48:22.945Z,99.90
2017-08-16T12:50:50.486Z,99.90
2017-08-16T12:53:18.040Z,91.30
2017-08-16T12:55:45.580Z,91.00
2017-08-16T12:58:13.162Z,93.80
2017-08-16T13:00:41.531Z,94.30
2017-08-16T13:03:09.086Z,93.00
2017-08-16T13:05:36.613Z,95.60
2017-08-16T13:08:04.172Z,93.40
2017-08-16T13:10:31.709Z,96.30
2017-08-16T13:12:59.343Z,92.80
2017-08-16T13:15:26.879Z,93.60
2017-08-16T13:17:54.440Z,99.90
2017-08-16T13:20:21.984Z,99.90
2017-08-16T13:22:49.569Z,98.70
2017-08-16T13:25:17.144Z,95.50
2017-08-16T13:27:44.698Z,96.00
2017-08-16T13:30:12.246Z,95.90
2017-08-16T13:32:39.801Z,97.60
2017-08-16T13:35:07.394Z,99.90
2017-08-16T13:37:34.936Z,99.90
2017-08-16T13:40:02.504Z,99.90
2017-08-16T13:42:30.053Z,99.90
2017-08-16T13:44:57.611Z,99.90
2017-08-16T13:47:25.156Z,99.90
2017-08-16T13:49:52.740Z,99.90
2017-08-16T13:52:20.288Z,99.90
2017-08-16T13:54:47.846Z,99.90
2017-08-16T13:57:16.151Z,96.30
2017-08-16T13:59:43.708Z,96.20
2017-08-16T14:02:11.252Z,96.70
2017-08-16T14:04:38.806Z,99.90
2017-08-16T14:07:07.094Z,99.90
2017-08-16T14:09:34.642Z,99.90
2017-08-16T14:12:02.195Z,99.60
2017-08-16T14:14:29.726Z,97.00
2017-08-16T14:16:57.274Z,97.00
2017-08-16T14:19:24.821Z,99.90
2017-08-16T14:21:52.380Z,99.20
2017-08-16T14:24:19.920Z,96.80
2017-08-16T14:26:47.470Z,98.90
2017-08-16T14:29:15.055Z,98.80
2017-08-16T14:31:42.635Z,95.90
2017-08-16T14:34:10.174Z,96.20
2017-08-16T14:36:37.741Z,98.10
2017-08-16T14:39:05.314Z,97.80
2017-08-16T14:41:32.872Z,97.30
2017-08-16T14:44:00.421Z,97.50
2017-08-16T14:46:27.980Z,95.90
2017-08-16T14:48:55.515Z,94.40
2017-08-16T14:51:23.076Z,94.40
2017-08-16T14:53:50.622Z,94.80
2017-08-16T14:56:18.953Z,92.60
2017-08-16T14:58:46.488Z,92.60
2017-08-16T15:01:14.038Z,93.30
2017-08-16T15:03:41.596Z,93.00
2017-08-16T15:06:09.160Z,92.90
2017-08-16T15:08:36.695Z,95.60
2017-08-16T15:11:05.019Z,92.50
2017-08-16T15:13:32.546Z,92.40
2017-08-16T15:16:00.107Z,93.40
2017-08-16T15:18:27.647Z,96.30
2017-08-16T15:20:55.179Z,96.70
2017-08-16T15:23:22.748Z,95.30
2017-08-16T15:25:50.304Z,98.30
2017-08-16T15:28:17.859Z,97.50
2017-08-16T15:30:45.396Z,96.90
2017-08-16T15:33:12.957Z,96.70
2017-08-16T15:35:40.492Z,96.10
2017-08-16T15:38:08.053Z,95.80
2017-08-16T15:40:36.351Z,95.40
2017-08-16T15:43:03.890Z,95.30
2017-08-16T15:45:31.419Z,95.00
2017-08-16T15:47:58.975Z,94.50
2017-08-16T15:50:26.506Z,98.00
2017-08-16T15:52:54.059Z,99.90
2017-08-16T15:55:21.604Z,99.00
2017-08-16T15:57:49.153Z,96.10
2017-08-16T16:00:16.749Z,94.70
2017-08-16T16:02:44.331Z,96.00
2017-08-16T16:05:11.904Z,98.20
2017-08-16T16:07:39.437Z,96.70
2017-08-16T16:10:06.982Z,95.00
2017-08-16T16:12:34.540Z,93.80
2017-08-16T16:15:02.101Z,97.40
2017-08-16T16:17:29.685Z,95.30
2017-08-16T16:19:57.261Z,95.20
2017-08-16T16:22:24.797Z,94.50
2017-08-16T16:24:52.350Z,95.60
2017-08-16T16:27:19.891Z,97.80
2017-08-16T16:29:47.483Z,98.60
2017-08-16T16:32:15.088Z,97.30
2017-08-16T16:34:42.678Z,99.50
2017-08-16T16:37:10.258Z,98.00
2017-08-16T16:39:37.835Z,96.10
2017-08-16T16:42:05.404Z,99.40
2017-08-16T16:44:32.971Z,99.90
2017-08-16T16:47:00.525Z,99.90
2017-08-16T16:49:28.091Z,99.90
2017-08-16T16:51:55.640Z,99.90
2017-08-16T16:54:23.250Z,99.90
2017-08-16T16:56:50.792Z,99.90
2017-08-16T16:59:19.138Z,99.90
2017-08-16T17:01:46.719Z,99.90
2017-08-16T17:04:14.283Z,99.90
2017-08-16T17:06:41.869Z,99.90
2017-08-16T17:09:09.416Z,99.90
2017-08-16T17:11:37.054Z,99.90
2017-08-16T17:14:04.612Z,99.90
2017-08-16T17:16:32.186Z,99.90
2017-08-16T17:18:59.735Z,99.90
2017-08-16T17:21:27.385Z,99.90
2017-08-16T17:23:54.946Z,99.90
2017-08-16T17:26:22.549Z,99.90
2017-08-16T17:28:50.890Z,99.90
2017-08-16T17:31:18.489Z,99.90
2017-08-16T17:33:46.074Z,99.90
2017-08-16T17:36:13.691Z,99.90
2017-08-16T17:38:41.246Z,99.90
2017-08-16T17:41:08.833Z,99.90
2017-08-16T17:43:37.134Z,99.90
2017-08-16T17:46:04.714Z,99.90
2017-08-16T17:48:32.274Z,99.90
2017-08-16T17:50:59.841Z,99.90
2017-08-16T17:53:27.426Z,99.90
2017-08-16T17:55:54.980Z,99.90
2017-08-16T17:58:22.554Z,99.90
2017-08-16T18:00:50.151Z,99.90
2017-08-16T18:03:17.724Z,99.90
2017-08-16T18:05:45.291Z,99.90
2017-08-16T18:08:12.850Z,99.90
2017-08-16T18:10:40.421Z,99.90
2017-08-16T18:13:08.022Z,99.90
2017-08-16T18:15:35.637Z,99.90
2017-08-16T18:18:03.374Z,99.90
2017-08-16T18:20:30.932Z,99.90
2017-08-16T18:22:58.498Z,99.90
2017-08-16T18:25:26.055Z,99.90
2017-08-16T18:27:53.615Z,99.90
2017-08-16T18:30:21.954Z,99.90
2017-08-16T18:32:49.804Z,99.90
2017-08-16T18:35:17.360Z,99.90
2017-08-16T18:37:44.936Z,99.90
2017-08-16T18:40:12.478Z,99.90
2017-08-16T18:42:40.213Z,99.90
2017-08-16T18:45:07.818Z,99.90
2017-08-16T18:47:35.404Z,99.90
2017-08-16T18:50:02.994Z,99.90
2017-08-16T18:52:31.341Z,99.90
2017-08-16T18:54:58.923Z,99.90
2017-08-16T18:57:26.490Z,99.90
2017-08-16T18:59:54.032Z,99.90
2017-08-16T19:02:21.640Z,99.90
2017-08-16T19:04:49.192Z,99.90
2017-08-16T19:07:16.755Z,99.90
2017-08-16T19:09:44.298Z,99.90
2017-08-16T19:12:11.866Z,99.90
2017-08-16T19:14:39.447Z,99.90
2017-08-16T19:17:07.043Z,99.90
2017-08-16T19:19:34.643Z,99.90
2017-08-16T19:22:02.230Z,99.90
2017-08-16T19:24:29.790Z,99.90
2017-08-16T19:26:58.520Z,99.90
2017-08-16T19:29:26.114Z,99.90
2017-08-16T19:31:53.674Z,99.90
2017-08-16T19:34:21.287Z,99.90
2017-08-16T19:36:48.875Z,99.90
2017-08-16T19:39:16.459Z,99.90
2017-08-16T19:41:44.037Z,99.90
2017-08-16T19:44:11.630Z,99.90
2017-08-16T19:46:39.296Z,99.90
2017-08-16T19:49:06.894Z,99.90
2017-08-16T19:51:34.459Z,99.90
2017-08-16T19:54:02.100Z,99.90
2017-08-16T19:56:29.680Z,99.90
2017-08-16T19:58:57.260Z,99.90
2017-08-16T20:01:24.911Z,99.90
2017-08-16T20:03:52.540Z,99.90
2017-08-16T20:06:20.088Z,99.90
2017-08-16T20:08:47.692Z,99.90
2017-08-16T20:11:15.313Z,99.90
2017-08-16T20:13:42.910Z,99.90
2017-08-16T20:16:10.506Z,99.90
2017-08-16T20:18:38.105Z,99.90
2017-08-16T20:21:05.784Z,99.90
2017-08-16T20:23:33.343Z,99.90
2017-08-16T20:26:01.002Z,99.90
2017-08-16T20:28:28.658Z,99.90
2017-08-16T20:30:56.326Z,99.90
2017-08-16T20:33:24.014Z,99.90
2017-08-16T20:35:51.647Z,99.90
2017-08-16T20:38:19.251Z,99.90
2017-08-16T20:40:46.878Z,99.90
2017-08-16T20:43:14.513Z,99.90
2017-08-16T20:45:42.128Z,99.90
2017-08-16T20:48:09.717Z,99.90
2017-08-16T20:50:37.312Z,99.90
2017-08-16T20:53:04.910Z,99.90
2017-08-16T20:55:32.527Z,99.90
2017-08-16T20:58:00.156Z,99.90
2017-08-16T21:00:27.747Z,99.90
2017-08-16T21:02:55.336Z,99.90
2017-08-16T21:05:22.895Z,99.90
2017-08-16T21:07:50.524Z,99.90
2017-08-16T21:10:18.093Z,99.90
2017-08-16T21:12:45.713Z,99.90
2017-08-16T21:15:13.289Z,99.90
2017-08-16T21:17:40.843Z,99.90
2017-08-16T21:20:08.487Z,99.90
2017-08-16T21:22:36.078Z,99.90
2017-08-16T21:25:03.742Z,99.90
2017-08-16T21:27:31.395Z,99.90
2017-08-16T21:29:59.061Z,99.90
2017-08-16T21:32:26.727Z,99.90
2017-08-16T21:34:54.332Z,99.90
2017-08-16T21:37:21.937Z,99.90
2017-08-16T21:39:49.506Z,99.90
2017-08-16T21:42:17.170Z,99.90
2017-08-16T21:44:44.875Z,99.90
2017-08-16T21:47:12.508Z,99.90
2017-08-16T21:49:40.107Z,99.90
2017-08-16T21:52:07.712Z,99.90
2017-08-16T21:54:35.330Z,99.90
2017-08-16T21:57:03.010Z,99.90
2017-08-16T21:59:30.587Z,99.90
2017-08-16T22:01:58.151Z,99.90
2017-08-16T22:04:25.712Z,99.90
2017-08-16T22:06:53.318Z,99.90
2017-08-16T22:09:20.937Z,99.90
2017-08-16T22:11:48.542Z,99.90
2017-08-16T22:14:16.150Z,99.90
2017-08-16T22:16:43.693Z,99.90
2017-08-16T22:19:11.327Z,99.90
2017-08-16T22:21:38.900Z,99.90
2017-08-16T22:24:06.487Z,99.90
2017-08-16T22:26:34.039Z,99.90
2017-08-16T22:29:01.627Z,99.90
2017-08-16T22:31:29.179Z,99.90
2017-08-16T22:33:56.744Z,99.90
2017-08-16T22:36:24.338Z,99.90
2017-08-16T22:38:51.938Z,99.90
2017-08-16T22:41:19.485Z,99.90
2017-08-16T22:43:47.065Z,99.90
2017-08-16T22:46:14.676Z,99.90
2017-08-16T22:48:42.271Z,99.90
2017-08-16T22:51:09.876Z,99.90
2017-08-16T22:53:37.456Z,99.90
2017-08-16T22:56:05.058Z,99.90
2017-08-16T22:58:32.632Z,99.90
2017-08-16T23:01:00.217Z,99.90
2017-08-16T23:03:27.794Z,99.90
2017-08-16T23:05:55.390Z,99.90
2017-08-16T23:08:22.984Z,99.90
2017-08-16T23:10:50.555Z,99.90
2017-08-16T23:13:18.157Z,99.90
2017-08-16T23:15:45.789Z,99.90
2017-08-16T23:18:13.358Z,99.90
2017-08-16T23:20:40.961Z,99.90
2017-08-16T23:23:08.541Z,99.90
2017-08-16T23:25:36.132Z,99.90
2017-08-16T23:28:03.689Z,99.90
2017-08-16T23:30:31.321Z,99.90
2017-08-16T23:32:58.923Z,99.90
2017-08-16T23:35:26.512Z,99.90
2017-08-16T23:37:54.072Z,99.90
2017-08-16T23:40:21.689Z,99.90
2017-08-16T23:42:49.264Z,99.90
2017-08-16T23:45:16.829Z,99.90
2017-08-16T23:47:44.384Z,99.90
2017-08-16T23:50:11.943Z,99.90
2017-08-16T23:52:39.532Z,99.90
2017-08-16T23:55:07.102Z,99.90
2017-08-16T23:57:34.734Z,99.90
